PRIVATE WETTERSTATION BILLIGHEIM-ALLFELD                       ZURCK
Wetterdaten: Dienstag, 19.04.2022
Datum Zeit Temp. A. Temp. A. min Temp. A. max Feuchte A. Luftdruck Regen Wind Richtung Richtung Sonnenschein ET Solar Taupunkt Windchill Windben Empfang
19.04.2022 00:00 6,1 C 6,1 C 6,3 C 68 % 1014,2 hPa 0,0 l/m 0,0 km/h (0 Bft) NO 36 0 min 0,000 mm 0 W/m 0,6 C 6,1 C 0,0 km/h (0 Bft) 100 %
19.04.2022 00:10 5,7 C 5,7 C 6,1 C 71 % 1014,2 hPa 0,0 l/m 0,0 km/h (0 Bft) NO 36 0 min 0,000 mm 0 W/m 0,9 C 5,7 C 0,0 km/h (0 Bft) 100 %
19.04.2022 00:20 5,4 C 5,4 C 5,7 C 71 % 1014,1 hPa 0,0 l/m 0,0 km/h (0 Bft) NO 36 0 min 0,000 mm 0 W/m 0,6 C 5,4 C 0,0 km/h (0 Bft) 100 %
19.04.2022 00:30 5,2 C 5,2 C 5,4 C 71 % 1014,1 hPa 0,0 l/m 0,0 km/h (0 Bft) NO 36 0 min 0,000 mm 0 W/m 0,4 C 5,2 C 0,0 km/h (0 Bft) 100 %
19.04.2022 00:40 5,1 C 5,1 C 5,2 C 71 % 1014,0 hPa 0,0 l/m 0,0 km/h (0 Bft) NO 36 0 min 0,000 mm 0 W/m 0,3 C 5,1 C 0,0 km/h (0 Bft) 91 %
19.04.2022 00:50 4,9 C 4,9 C 5,1 C 74 % 1014,0 hPa 0,0 l/m 0,0 km/h (0 Bft) NO 36 0 min 0,000 mm 0 W/m 0,7 C 4,9 C 0,0 km/h (0 Bft) 100 %
19.04.2022 01:00 4,7 C 4,7 C 5,0 C 75 % 1013,9 hPa 0,0 l/m 0,0 km/h (0 Bft) NO 36 0 min 0,025 mm 0 W/m 0,7 C 4,7 C 0,0 km/h (0 Bft) 100 %
19.04.2022 01:10 4,6 C 4,6 C 4,7 C 75 % 1014,0 hPa 0,0 l/m 0,0 km/h (0 Bft) NO 36 0 min 0,000 mm 0 W/m 0,6 C 4,6 C 0,0 km/h (0 Bft) 100 %
19.04.2022 01:20 4,2 C 4,2 C 4,6 C 77 % 1013,9 hPa 0,0 l/m 0,1 km/h (0 Bft) N-NO 21 0 min 0,000 mm 0 W/m 0,5 C 4,2 C 3,2 km/h (1 Bft) 100 %
19.04.2022 01:30 4,0 C 4,0 C 4,2 C 78 % 1013,7 hPa 0,0 l/m 0,0 km/h (0 Bft) N-NO 14 0 min 0,000 mm 0 W/m 0,5 C 4,0 C 1,6 km/h (1 Bft) 100 %
19.04.2022 01:40 3,8 C 3,8 C 4,0 C 79 % 1013,4 hPa 0,0 l/m 0,0 km/h (0 Bft) N-NO 14 0 min 0,000 mm 0 W/m 0,5 C 3,8 C 0,0 km/h (0 Bft) 100 %
19.04.2022 01:50 3,6 C 3,6 C 3,8 C 79 % 1013,4 hPa 0,0 l/m 0,0 km/h (0 Bft) N-NO 14 0 min 0,000 mm 0 W/m 0,3 C 3,6 C 0,0 km/h (0 Bft) 99 %
19.04.2022 02:00 3,5 C 3,5 C 3,6 C 80 % 1013,3 hPa 0,0 l/m 0,0 km/h (0 Bft) N-NO 14 0 min 0,000 mm 0 W/m 0,4 C 3,5 C 0,0 km/h (0 Bft) 100 %
19.04.2022 02:10 3,3 C 3,3 C 3,5 C 80 % 1013,3 hPa 0,0 l/m 0,0 km/h (0 Bft) N-NO 14 0 min 0,000 mm 0 W/m 0,2 C 3,3 C 0,0 km/h (0 Bft) 100 %
19.04.2022 02:20 3,1 C 3,1 C 3,3 C 81 % 1013,2 hPa 0,0 l/m 0,0 km/h (0 Bft) N-NO 14 0 min 0,000 mm 0 W/m 0,2 C 3,1 C 1,6 km/h (1 Bft) 91 %
19.04.2022 02:30 3,0 C 3,0 C 3,1 C 81 % 1013,1 hPa 0,0 l/m 0,0 km/h (0 Bft) N-NO 14 0 min 0,000 mm 0 W/m 0,1 C 3,0 C 0,0 km/h (0 Bft) 100 %
19.04.2022 02:40 2,9 C 2,9 C 3,0 C 82 % 1013,0 hPa 0,0 l/m 0,6 km/h (0 Bft) N 5 0 min 0,000 mm 0 W/m 0,1 C 2,9 C 4,8 km/h (1 Bft) 100 %
19.04.2022 02:50 2,7 C 2,7 C 2,9 C 82 % 1013,0 hPa 0,0 l/m 0,0 km/h (0 Bft) N 5 0 min 0,000 mm 0 W/m -0,1 C 2,7 C 0,0 km/h (0 Bft) 100 %
19.04.2022 03:00 2,6 C 2,6 C 2,7 C 82 % 1012,8 hPa 0,0 l/m 0,0 km/h (0 Bft) N 11 0 min 0,000 mm 0 W/m -0,2 C 2,6 C 0,0 km/h (0 Bft) 100 %
19.04.2022 03:10 2,6 C 2,6 C 2,6 C 82 % 1012,8 hPa 0,0 l/m 0,0 km/h (0 Bft) N 11 0 min 0,000 mm 0 W/m -0,2 C 2,6 C 0,0 km/h (0 Bft) 100 %
19.04.2022 03:20 2,8 C 2,6 C 2,8 C 81 % 1012,8 hPa 0,0 l/m 0,0 km/h (0 Bft) N 11 0 min 0,000 mm 0 W/m -0,1 C 2,8 C 0,0 km/h (0 Bft) 100 %
19.04.2022 03:30 2,8 C 2,8 C 2,8 C 81 % 1012,7 hPa 0,0 l/m 0,0 km/h (0 Bft) N 11 0 min 0,000 mm 0 W/m -0,1 C 2,8 C 0,0 km/h (0 Bft) 100 %
19.04.2022 03:40 2,7 C 2,7 C 2,8 C 81 % 1012,6 hPa 0,0 l/m 0,0 km/h (0 Bft) N 11 0 min 0,000 mm 0 W/m -0,2 C 2,7 C 0,0 km/h (0 Bft) 100 %
19.04.2022 03:50 2,6 C 2,6 C 2,7 C 81 % 1012,5 hPa 0,0 l/m 0,0 km/h (0 Bft) N 11 0 min 0,000 mm 0 W/m -0,3 C 2,6 C 0,0 km/h (0 Bft) 91 %
19.04.2022 04:00 2,4 C 2,4 C 2,6 C 82 % 1012,4 hPa 0,0 l/m 0,0 km/h (0 Bft) N 11 0 min 0,000 mm 0 W/m -0,4 C 2,4 C 0,0 km/h (0 Bft) 100 %
19.04.2022 04:10 2,3 C 2,3 C 2,4 C 82 % 1012,5 hPa 0,0 l/m 0,0 km/h (0 Bft) N 11 0 min 0,000 mm 0 W/m -0,4 C 2,3 C 0,0 km/h (0 Bft) 98 %
19.04.2022 04:20 2,2 C 2,2 C 2,3 C 82 % 1012,5 hPa 0,0 l/m 0,0 km/h (0 Bft) N 11 0 min 0,000 mm 0 W/m -0,5 C 2,2 C 0,0 km/h (0 Bft) 100 %
19.04.2022 04:30 1,9 C 1,9 C 2,2 C 83 % 1012,4 hPa 0,0 l/m 0,0 km/h (0 Bft) N 11 0 min 0,000 mm 0 W/m -0,7 C 1,9 C 0,0 km/h (0 Bft) 99 %
19.04.2022 04:40 1,8 C 1,8 C 1,9 C 84 % 1012,3 hPa 0,0 l/m 0,0 km/h (0 Bft) N 11 0 min 0,000 mm 0 W/m -0,6 C 1,8 C 0,0 km/h (0 Bft) 97 %
19.04.2022 04:50 1,8 C 1,8 C 1,8 C 85 % 1012,2 hPa 0,0 l/m 0,0 km/h (0 Bft) N 11 0 min 0,000 mm 0 W/m -0,4 C 1,8 C 0,0 km/h (0 Bft) 98 %
19.04.2022 05:00 1,7 C 1,7 C 1,8 C 84 % 1012,1 hPa 0,0 l/m 0,0 km/h (0 Bft) N 11 0 min 0,000 mm 0 W/m -0,7 C 1,7 C 0,0 km/h (0 Bft) 97 %
19.04.2022 05:10 1,9 C 1,7 C 1,9 C 84 % 1012,3 hPa 0,0 l/m 0,0 km/h (0 Bft) N 11 0 min 0,000 mm 0 W/m -0,5 C 1,9 C 1,6 km/h (1 Bft) 98 %
19.04.2022 05:20 1,6 C 1,6 C 1,9 C 84 % 1012,2 hPa 0,0 l/m 0,0 km/h (0 Bft) N 11 0 min 0,000 mm 0 W/m -0,8 C 1,6 C 0,0 km/h (0 Bft) 97 %
19.04.2022 05:30 1,4 C 1,4 C 1,6 C 85 % 1012,2 hPa 0,0 l/m 0,7 km/h (0 Bft) N 5 0 min 0,000 mm 0 W/m -0,8 C 1,4 C 4,8 km/h (1 Bft) 97 %
19.04.2022 05:40 1,3 C 1,3 C 1,4 C 85 % 1012,1 hPa 0,0 l/m 0,0 km/h (0 Bft) N 5 0 min 0,000 mm 0 W/m -0,9 C 1,3 C 0,0 km/h (0 Bft) 98 %
19.04.2022 05:50 1,1 C 1,1 C 1,3 C 86 % 1012,1 hPa 0,0 l/m 0,0 km/h (0 Bft) N 5 0 min 0,000 mm 0 W/m -1,0 C 1,1 C 0,0 km/h (0 Bft) 97 %
19.04.2022 06:00 1,1 C 1,1 C 1,1 C 87 % 1012,2 hPa 0,0 l/m 0,0 km/h (0 Bft) N 5 0 min 0,000 mm 0 W/m -0,8 C 1,1 C 0,0 km/h (0 Bft) 97 %
19.04.2022 06:10 1,2 C 1,1 C 1,2 C 87 % 1012,2 hPa 0,0 l/m 0,0 km/h (0 Bft) N 5 0 min 0,000 mm 0 W/m -0,7 C 1,2 C 0,0 km/h (0 Bft) 97 %
19.04.2022 06:20 1,3 C 1,2 C 1,3 C 87 % 1012,3 hPa 0,0 l/m 0,0 km/h (0 Bft) N 5 0 min 0,000 mm 0 W/m -0,6 C 1,3 C 0,0 km/h (0 Bft) 98 %
19.04.2022 06:30 1,2 C 1,2 C 1,3 C 87 % 1012,3 hPa 0,0 l/m 0,0 km/h (0 Bft) N 5 0 min 0,000 mm 0 W/m -0,7 C 1,2 C 0,0 km/h (0 Bft) 97 %
19.04.2022 06:40 1,1 C 1,1 C 1,2 C 87 % 1012,4 hPa 0,0 l/m 0,0 km/h (0 Bft) N 5 0 min 0,000 mm 11 W/m -0,8 C 1,1 C 0,0 km/h (0 Bft) 98 %
19.04.2022 06:50 1,1 C 1,1 C 1,1 C 87 % 1012,4 hPa 0,0 l/m 0,0 km/h (0 Bft) N 5 0 min 0,000 mm 21 W/m -0,8 C 1,1 C 0,0 km/h (0 Bft) 97 %
19.04.2022 07:00 1,1 C 1,1 C 1,1 C 87 % 1012,3 hPa 0,0 l/m 0,0 km/h (0 Bft) N 5 0 min 0,000 mm 28 W/m -0,8 C 1,1 C 0,0 km/h (0 Bft) 97 %
19.04.2022 07:10 1,1 C 1,1 C 1,1 C 88 % 1012,3 hPa 0,0 l/m 0,0 km/h (0 Bft) N 5 0 min 0,000 mm 26 W/m -0,7 C 1,1 C 0,0 km/h (0 Bft) 98 %
19.04.2022 07:20 1,2 C 1,1 C 1,2 C 88 % 1012,4 hPa 0,0 l/m 0,0 km/h (0 Bft) N 5 0 min 0,000 mm 26 W/m -0,6 C 1,2 C 0,0 km/h (0 Bft) 97 %
19.04.2022 07:30 1,3 C 1,2 C 1,3 C 88 % 1012,4 hPa 0,0 l/m 0,0 km/h (0 Bft) N 5 0 min 0,000 mm 28 W/m -0,5 C 1,3 C 0,0 km/h (0 Bft) 97 %
19.04.2022 07:40 1,4 C 1,3 C 1,4 C 88 % 1012,3 hPa 0,0 l/m 0,0 km/h (0 Bft) N 5 0 min 0,000 mm 30 W/m -0,4 C 1,4 C 0,0 km/h (0 Bft) 99 %
19.04.2022 07:50 1,6 C 1,4 C 1,6 C 88 % 1012,4 hPa 0,0 l/m 0,0 km/h (0 Bft) N 5 0 min 0,000 mm 40 W/m -0,2 C 1,6 C 0,0 km/h (0 Bft) 100 %
19.04.2022 08:00 1,8 C 1,6 C 1,8 C 88 % 1012,5 hPa 0,0 l/m 0,0 km/h (0 Bft) N 5 0 min 0,000 mm 42 W/m 0,0 C 1,8 C 0,0 km/h (0 Bft) 100 %
19.04.2022 08:10 2,2 C 1,8 C 2,2 C 88 % 1012,5 hPa 0,0 l/m 0,0 km/h (0 Bft) N 5 0 min 0,000 mm 46 W/m 0,4 C 2,2 C 0,0 km/h (0 Bft) 100 %
19.04.2022 08:20 2,6 C 2,2 C 2,6 C 88 % 1012,5 hPa 0,0 l/m 0,0 km/h (0 Bft) N 5 0 min 0,000 mm 63 W/m 0,8 C 2,6 C 0,0 km/h (0 Bft) 99 %
19.04.2022 08:30 3,3 C 2,6 C 3,3 C 87 % 1012,5 hPa 0,0 l/m 0,0 km/h (0 Bft) N 5 10 min 0,000 mm 221 W/m 1,3 C 3,3 C 0,0 km/h (0 Bft) 100 %
19.04.2022 08:40 4,4 C 3,3 C 4,4 C 86 % 1012,5 hPa 0,0 l/m 0,0 km/h (0 Bft) N 5 10 min 0,000 mm 339 W/m 2,3 C 4,4 C 0,0 km/h (0 Bft) 100 %
19.04.2022 08:50 6,0 C 4,4 C 6,0 C 81 % 1012,5 hPa 0,0 l/m 0,0 km/h (0 Bft) N 5 10 min 0,000 mm 373 W/m 3,0 C 6,0 C 0,0 km/h (0 Bft) 100 %
19.04.2022 09:00 7,3 C 6,0 C 7,3 C 78 % 1012,5 hPa 0,0 l/m 0,0 km/h (0 Bft) N 5 10 min 0,077 mm 397 W/m 3,7 C 7,3 C 0,0 km/h (0 Bft) 100 %
19.04.2022 09:10 8,5 C 7,3 C 8,5 C 74 % 1012,4 hPa 0,0 l/m 0,0 km/h (0 Bft) N 5 10 min 0,000 mm 429 W/m 4,1 C 8,5 C 0,0 km/h (0 Bft) 100 %
19.04.2022 09:20 9,7 C 8,5 C 9,7 C 70 % 1012,5 hPa 0,0 l/m 0,0 km/h (0 Bft) N 9 10 min 0,000 mm 461 W/m 4,5 C 9,7 C 0,0 km/h (0 Bft) 100 %
19.04.2022 09:30 10,8 C 9,7 C 10,8 C 65 % 1012,5 hPa 0,0 l/m 0,3 km/h (0 Bft) NO 34 10 min 0,000 mm 482 W/m 4,5 C 10,8 C 9,7 km/h (2 Bft) 100 %
19.04.2022 09:40 11,6 C 10,8 C 11,6 C 61 % 1012,5 hPa 0,0 l/m 0,5 km/h (0 Bft) N-NO 19 10 min 0,000 mm 506 W/m 4,3 C 11,6 C 9,7 km/h (2 Bft) 100 %
19.04.2022 09:50 12,1 C 11,6 C 12,1 C 60 % 1012,4 hPa 0,0 l/m 0,1 km/h (0 Bft) N-NO 22 10 min 0,000 mm 531 W/m 4,6 C 12,1 C 4,8 km/h (1 Bft) 100 %
19.04.2022 10:00 12,6 C 12,1 C 12,6 C 57 % 1012,4 hPa 0,0 l/m 0,0 km/h (0 Bft) N-NO 22 10 min 0,228 mm 561 W/m 4,3 C 12,6 C 0,0 km/h (0 Bft) 100 %
19.04.2022 10:10 13,0 C 12,6 C 13,0 C 55 % 1012,3 hPa 0,0 l/m 0,0 km/h (0 Bft) N-NO 21 10 min 0,000 mm 587 W/m 4,2 C 13,0 C 1,6 km/h (1 Bft) 100 %
19.04.2022 10:20 13,6 C 13,0 C 13,6 C 53 % 1012,3 hPa 0,0 l/m 0,0 km/h (0 Bft) N-NO 20 10 min 0,000 mm 610 W/m 4,2 C 13,6 C 1,6 km/h (1 Bft) 100 %
19.04.2022 10:30 13,7 C 13,6 C 13,7 C 51 % 1012,1 hPa 0,0 l/m 0,0 km/h (0 Bft) N-NO 13 10 min 0,000 mm 469 W/m 3,8 C 13,7 C 1,6 km/h (1 Bft) 100 %
19.04.2022 10:40 13,8 C 13,7 C 13,8 C 51 % 1012,0 hPa 0,0 l/m 0,0 km/h (0 Bft) N 11 10 min 0,000 mm 684 W/m 3,8 C 13,8 C 1,6 km/h (1 Bft) 100 %
19.04.2022 10:50 14,3 C 13,8 C 14,3 C 52 % 1012,1 hPa 0,0 l/m 0,0 km/h (0 Bft) N 355 10 min 0,000 mm 703 W/m 4,6 C 14,3 C 1,6 km/h (1 Bft) 100 %
19.04.2022 11:00 14,3 C 14,3 C 14,4 C 45 % 1012,0 hPa 0,0 l/m 0,3 km/h (0 Bft) O-NO 60 10 min 0,305 mm 745 W/m 2,5 C 14,3 C 6,4 km/h (2 Bft) 100 %
19.04.2022 11:10 14,9 C 14,3 C 14,9 C 46 % 1012,0 hPa 0,0 l/m 0,1 km/h (0 Bft) NO 56 10 min 0,000 mm 752 W/m 3,4 C 14,9 C 4,8 km/h (1 Bft) 100 %
19.04.2022 11:20 15,1 C 14,9 C 15,1 C 46 % 1011,9 hPa 0,0 l/m 0,2 km/h (0 Bft) NO 38 10 min 0,000 mm 784 W/m 3,6 C 15,1 C 4,8 km/h (1 Bft) 100 %
19.04.2022 11:30 15,4 C 15,1 C 15,4 C 47 % 1011,9 hPa 0,0 l/m 0,0 km/h (0 Bft) NO 51 10 min 0,000 mm 765 W/m 4,1 C 15,4 C 1,6 km/h (1 Bft) 100 %
19.04.2022 11:40 15,7 C 15,4 C 15,7 C 49 % 1011,9 hPa 0,0 l/m 0,9 km/h (0 Bft) N-NW 331 10 min 0,000 mm 664 W/m 5,0 C 15,7 C 8,0 km/h (2 Bft) 100 %
19.04.2022 11:50 15,7 C 15,7 C 15,7 C 47 % 1011,8 hPa 0,0 l/m 0,0 km/h (0 Bft) N-NO 22 10 min 0,000 mm 789 W/m 4,4 C 15,7 C 1,6 km/h (1 Bft) 100 %
19.04.2022 12:00 16,1 C 15,7 C 16,1 C 48 % 1011,5 hPa 0,0 l/m 0,4 km/h (0 Bft) N-NW 332 10 min 0,406 mm 798 W/m 5,1 C 16,1 C 9,7 km/h (2 Bft) 100 %
19.04.2022 12:10 16,7 C 16,1 C 16,8 C 43 % 1011,5 hPa 0,0 l/m 5,8 km/h (2 Bft) N-NW 340 10 min 0,000 mm 789 W/m 4,1 C 16,7 C 17,7 km/h (3 Bft) 100 %
19.04.2022 12:20 16,9 C 16,7 C 16,9 C 43 % 1011,4 hPa 0,0 l/m 3,7 km/h (1 Bft) N-NW 327 10 min 0,000 mm 796 W/m 4,2 C 16,9 C 20,9 km/h (4 Bft) 100 %
19.04.2022 12:30 16,9 C 16,8 C 17,0 C 44 % 1011,4 hPa 0,0 l/m 0,2 km/h (0 Bft) NO 55 10 min 0,000 mm 802 W/m 4,6 C 16,9 C 6,4 km/h (2 Bft) 100 %
19.04.2022 12:40 17,0 C 16,8 C 17,0 C 44 % 1011,3 hPa 0,0 l/m 0,6 km/h (0 Bft) N-NW 332 10 min 0,000 mm 809 W/m 4,7 C 17,0 C 11,3 km/h (2 Bft) 100 %
19.04.2022 12:50 17,1 C 17,0 C 17,2 C 45 % 1011,2 hPa 0,0 l/m 1,3 km/h (1 Bft) N 9 10 min 0,000 mm 809 W/m 5,1 C 17,1 C 14,5 km/h (3 Bft) 100 %
19.04.2022 13:00 16,9 C 16,9 C 17,1 C 43 % 1011,0 hPa 0,0 l/m 0,0 km/h (0 Bft) O-SO 115 10 min 0,458 mm 816 W/m 4,2 C 16,9 C 1,6 km/h (1 Bft) 100 %
19.04.2022 13:10 17,2 C 16,8 C 17,2 C 43 % 1011,0 hPa 0,0 l/m 0,7 km/h (0 Bft) N-NW 345 10 min 0,000 mm 819 W/m 4,5 C 17,2 C 9,7 km/h (2 Bft) 100 %
19.04.2022 13:20 17,6 C 17,2 C 17,7 C 42 % 1010,8 hPa 0,0 l/m 2,3 km/h (1 Bft) O-NO 61 10 min 0,000 mm 816 W/m 4,5 C 17,6 C 11,3 km/h (2 Bft) 100 %
19.04.2022 13:30 17,2 C 17,2 C 17,6 C 41 % 1010,8 hPa 0,0 l/m 0,4 km/h (0 Bft) NO 54 10 min 0,000 mm 817 W/m 3,8 C 17,2 C 4,8 km/h (1 Bft) 100 %
19.04.2022 13:40 17,0 C 17,0 C 17,2 C 44 % 1010,6 hPa 0,0 l/m 0,5 km/h (0 Bft) O-NO 67 10 min 0,000 mm 812 W/m 4,7 C 17,0 C 9,7 km/h (2 Bft) 100 %
19.04.2022 13:50 17,1 C 16,9 C 17,1 C 42 % 1010,5 hPa 0,0 l/m 0,9 km/h (0 Bft) N-NO 25 10 min 0,000 mm 809 W/m 4,1 C 17,1 C 9,7 km/h (2 Bft) 100 %
19.04.2022 14:00 17,3 C 17,1 C 17,3 C 41 % 1010,5 hPa 0,0 l/m 0,4 km/h (0 Bft) NO 39 10 min 0,457 mm 805 W/m 3,9 C 17,3 C 8,0 km/h (2 Bft) 100 %
19.04.2022 14:10 17,3 C 17,3 C 17,4 C 45 % 1010,3 hPa 0,0 l/m 0,2 km/h (0 Bft) O 90 10 min 0,000 mm 798 W/m 5,3 C 17,3 C 6,4 km/h (2 Bft) 100 %
19.04.2022 14:20 17,7 C 17,3 C 17,7 C 44 % 1010,4 hPa 0,0 l/m 0,3 km/h (0 Bft) NO 39 10 min 0,000 mm 793 W/m 5,3 C 17,7 C 6,4 km/h (2 Bft) 100 %
19.04.2022 14:30 17,8 C 17,7 C 17,8 C 40 % 1010,4 hPa 0,0 l/m 0,4 km/h (0 Bft) N-NO 28 10 min 0,000 mm 780 W/m 4,0 C 17,8 C 11,3 km/h (2 Bft) 91 %
19.04.2022 14:40 18,1 C 17,8 C 18,1 C 41 % 1010,1 hPa 0,0 l/m 0,3 km/h (0 Bft) O 80 10 min 0,000 mm 766 W/m 4,6 C 18,1 C 8,0 km/h (2 Bft) 99 %
19.04.2022 14:50 18,3 C 18,1 C 18,3 C 40 % 1010,0 hPa 0,0 l/m 0,4 km/h (0 Bft) O-SO 109 10 min 0,000 mm 756 W/m 4,5 C 18,3 C 9,7 km/h (2 Bft) 100 %
19.04.2022 15:00 18,4 C 18,3 C 18,4 C 37 % 1009,9 hPa 0,0 l/m 0,0 km/h (0 Bft) NO 46 10 min 0,432 mm 747 W/m 3,5 C 18,4 C 3,2 km/h (1 Bft) 100 %
19.04.2022 15:10 18,3 C 18,3 C 18,4 C 38 % 1009,8 hPa 0,0 l/m 0,1 km/h (0 Bft) O-NO 62 10 min 0,000 mm 724 W/m 3,7 C 18,3 C 6,4 km/h (2 Bft) 100 %
19.04.2022 15:20 18,6 C 18,3 C 18,6 C 39 % 1009,8 hPa 0,0 l/m 0,4 km/h (0 Bft) N-NO 19 10 min 0,000 mm 712 W/m 4,4 C 18,6 C 11,3 km/h (2 Bft) 100 %
19.04.2022 15:30 18,5 C 18,4 C 18,6 C 38 % 1009,7 hPa 0,0 l/m 0,3 km/h (0 Bft) NO 38 10 min 0,000 mm 698 W/m 3,9 C 18,5 C 8,0 km/h (2 Bft) 100 %
19.04.2022 15:40 18,8 C 18,4 C 18,8 C 38 % 1009,6 hPa 0,0 l/m 1,6 km/h (1 Bft) NW 315 10 min 0,000 mm 680 W/m 4,2 C 18,8 C 11,3 km/h (2 Bft) 100 %
19.04.2022 15:50 19,1 C 18,8 C 19,1 C 39 % 1009,5 hPa 0,0 l/m 0,5 km/h (0 Bft) N-NO 28 10 min 0,000 mm 664 W/m 4,8 C 19,1 C 8,0 km/h (2 Bft) 100 %
19.04.2022 16:00 18,8 C 18,8 C 19,1 C 38 % 1009,7 hPa 0,0 l/m 0,2 km/h (0 Bft) O 101 10 min 0,406 mm 647 W/m 4,2 C 18,8 C 6,4 km/h (2 Bft) 100 %
19.04.2022 16:10 18,9 C 18,8 C 19,0 C 38 % 1009,5 hPa 0,0 l/m 0,1 km/h (0 Bft) O 86 10 min 0,000 mm 624 W/m 4,3 C 18,9 C 1,6 km/h (1 Bft) 100 %
19.04.2022 16:20 18,8 C 18,8 C 18,9 C 37 % 1009,5 hPa 0,0 l/m 0,2 km/h (0 Bft) NO 54 10 min 0,000 mm 599 W/m 3,8 C 18,8 C 9,7 km/h (2 Bft) 100 %
19.04.2022 16:30 19,1 C 18,8 C 19,1 C 37 % 1009,5 hPa 0,0 l/m 0,4 km/h (0 Bft) N-NW 346 10 min 0,000 mm 575 W/m 4,1 C 19,1 C 6,4 km/h (2 Bft) 100 %
19.04.2022 16:40 19,5 C 19,1 C 19,5 C 37 % 1009,5 hPa 0,0 l/m 0,9 km/h (0 Bft) NW 325 10 min 0,000 mm 557 W/m 4,4 C 19,5 C 8,0 km/h (2 Bft) 100 %
19.04.2022 16:50 19,8 C 19,5 C 19,8 C 38 % 1009,3 hPa 0,0 l/m 3,3 km/h (1 Bft) N 360 10 min 0,000 mm 527 W/m 5,1 C 19,8 C 16,1 km/h (3 Bft) 100 %
19.04.2022 17:00 19,4 C 19,4 C 19,8 C 39 % 1009,4 hPa 0,0 l/m 0,0 km/h (0 Bft) N 360 10 min 0,330 mm 503 W/m 5,1 C 19,4 C 1,6 km/h (1 Bft) 100 %
19.04.2022 17:10 19,2 C 19,2 C 19,4 C 39 % 1009,3 hPa 0,0 l/m 0,2 km/h (0 Bft) NO 54 10 min 0,000 mm 475 W/m 4,9 C 19,2 C 4,8 km/h (1 Bft) 100 %
19.04.2022 17:20 19,3 C 19,1 C 19,3 C 40 % 1009,3 hPa 0,0 l/m 0,5 km/h (0 Bft) N-NW 329 10 min 0,000 mm 459 W/m 5,4 C 19,3 C 8,0 km/h (2 Bft) 100 %
19.04.2022 17:30 19,1 C 19,1 C 19,3 C 43 % 1009,3 hPa 0,0 l/m 0,0 km/h (0 Bft) N 5 10 min 0,000 mm 431 W/m 6,2 C 19,1 C 1,6 km/h (1 Bft) 99 %
19.04.2022 17:40 18,9 C 18,9 C 19,1 C 39 % 1009,3 hPa 0,0 l/m 0,2 km/h (0 Bft) N 355 10 min 0,000 mm 383 W/m 4,6 C 18,9 C 8,0 km/h (2 Bft) 100 %
19.04.2022 17:50 19,0 C 18,8 C 19,0 C 40 % 1009,3 hPa 0,0 l/m 0,1 km/h (0 Bft) N-NW 345 10 min 0,000 mm 403 W/m 5,1 C 19,0 C 3,2 km/h (1 Bft) 100 %
19.04.2022 18:00 18,9 C 18,9 C 19,1 C 39 % 1009,2 hPa 0,0 l/m 0,0 km/h (0 Bft) N-NO 31 10 min 0,254 mm 369 W/m 4,6 C 18,9 C 1,6 km/h (1 Bft) 100 %
19.04.2022 18:10 18,6 C 18,6 C 18,9 C 42 % 1009,3 hPa 0,0 l/m 0,3 km/h (0 Bft) O-NO 62 10 min 0,000 mm 279 W/m 5,4 C 18,6 C 9,7 km/h (2 Bft) 100 %
19.04.2022 18:20 17,8 C 17,8 C 18,6 C 42 % 1009,2 hPa 0,0 l/m 0,0 km/h (0 Bft) O-NO 57 0 min 0,000 mm 141 W/m 4,7 C 17,8 C 1,6 km/h (1 Bft) 100 %
19.04.2022 18:30 17,4 C 17,4 C 17,8 C 44 % 1009,3 hPa 0,0 l/m 0,2 km/h (0 Bft) NO 48 0 min 0,000 mm 121 W/m 5,0 C 17,4 C 8,0 km/h (2 Bft) 100 %
19.04.2022 18:40 16,8 C 16,8 C 17,4 C 46 % 1009,4 hPa 0,0 l/m 0,5 km/h (0 Bft) N-NO 15 0 min 0,000 mm 54 W/m 5,1 C 16,8 C 9,7 km/h (2 Bft) 100 %
19.04.2022 18:50 16,1 C 16,1 C 16,8 C 47 % 1009,5 hPa 0,0 l/m 0,2 km/h (0 Bft) O 83 0 min 0,000 mm 44 W/m 4,8 C 16,1 C 8,0 km/h (2 Bft) 100 %
19.04.2022 19:00 15,6 C 15,6 C 16,1 C 49 % 1009,5 hPa 0,0 l/m 0,0 km/h (0 Bft) O-NO 74 0 min 0,076 mm 39 W/m 4,9 C 15,6 C 0,0 km/h (0 Bft) 100 %
19.04.2022 19:10 15,3 C 15,3 C 15,6 C 49 % 1009,4 hPa 0,0 l/m 0,0 km/h (0 Bft) O-NO 64 0 min 0,000 mm 40 W/m 4,7 C 15,3 C 1,6 km/h (1 Bft) 100 %
19.04.2022 19:20 15,3 C 15,2 C 15,3 C 48 % 1009,6 hPa 0,0 l/m 0,3 km/h (0 Bft) O-NO 75 0 min 0,000 mm 40 W/m 4,4 C 15,3 C 8,0 km/h (2 Bft) 100 %
19.04.2022 19:30 15,1 C 15,1 C 15,3 C 47 % 1009,7 hPa 0,0 l/m 0,2 km/h (0 Bft) NO 46 0 min 0,000 mm 32 W/m 3,9 C 15,1 C 9,7 km/h (2 Bft) 100 %
19.04.2022 19:40 14,8 C 14,8 C 15,1 C 46 % 1010,0 hPa 0,0 l/m 0,0 km/h (0 Bft) O-NO 66 0 min 0,000 mm 23 W/m 3,3 C 14,8 C 4,8 km/h (1 Bft) 100 %
19.04.2022 19:50 14,4 C 14,4 C 14,8 C 47 % 1010,0 hPa 0,0 l/m 0,1 km/h (0 Bft) O 82 0 min 0,000 mm 19 W/m 3,2 C 14,4 C 4,8 km/h (1 Bft) 100 %
19.04.2022 20:00 14,1 C 14,1 C 14,4 C 46 % 1010,3 hPa 0,0 l/m 0,5 km/h (0 Bft) NO 52 0 min 0,026 mm 12 W/m 2,7 C 14,1 C 14,5 km/h (3 Bft) 100 %
19.04.2022 20:10 13,7 C 13,7 C 14,1 C 46 % 1010,1 hPa 0,0 l/m 0,2 km/h (0 Bft) O 82 0 min 0,000 mm 5 W/m 2,3 C 13,7 C 11,3 km/h (2 Bft) 100 %
19.04.2022 20:20 13,4 C 13,4 C 13,7 C 46 % 1010,5 hPa 0,0 l/m 1,0 km/h (0 Bft) NO 38 0 min 0,000 mm 0 W/m 2,0 C 13,4 C 16,1 km/h (3 Bft) 100 %
19.04.2022 20:30 13,2 C 13,2 C 13,4 C 47 % 1010,6 hPa 0,0 l/m 0,2 km/h (0 Bft) O 82 0 min 0,000 mm 0 W/m 2,1 C 13,2 C 6,4 km/h (2 Bft) 100 %
19.04.2022 20:40 12,8 C 12,8 C 13,2 C 47 % 1010,9 hPa 0,0 l/m 0,2 km/h (0 Bft) N-NO 22 0 min 0,000 mm 0 W/m 1,8 C 12,8 C 8,0 km/h (2 Bft) 100 %
19.04.2022 20:50 12,6 C 12,6 C 12,8 C 47 % 1011,1 hPa 0,0 l/m 0,6 km/h (0 Bft) N-NO 29 0 min 0,000 mm 0 W/m 1,6 C 12,6 C 16,1 km/h (3 Bft) 100 %
19.04.2022 21:00 12,4 C 12,4 C 12,6 C 47 % 1011,4 hPa 0,0 l/m 0,0 km/h (0 Bft) O 93 0 min 0,025 mm 0 W/m 1,4 C 12,4 C 1,6 km/h (1 Bft) 100 %
19.04.2022 21:10 12,1 C 12,1 C 12,4 C 48 % 1011,6 hPa 0,0 l/m 0,0 km/h (0 Bft) O 85 0 min 0,000 mm 0 W/m 1,4 C 12,1 C 1,6 km/h (1 Bft) 100 %
19.04.2022 21:20 11,8 C 11,8 C 12,1 C 49 % 1011,9 hPa 0,0 l/m 0,0 km/h (0 Bft) O 81 0 min 0,000 mm 0 W/m 1,4 C 11,8 C 1,6 km/h (1 Bft) 100 %
19.04.2022 21:30 11,5 C 11,5 C 11,8 C 49 % 1012,1 hPa 0,0 l/m 0,8 km/h (0 Bft) NO 49 0 min 0,000 mm 0 W/m 1,2 C 11,5 C 9,7 km/h (2 Bft) 100 %
19.04.2022 21:40 11,4 C 11,4 C 11,6 C 50 % 1012,3 hPa 0,0 l/m 0,4 km/h (0 Bft) N-NO 31 0 min 0,000 mm 0 W/m 1,4 C 11,4 C 16,1 km/h (3 Bft) 100 %
19.04.2022 21:50 11,2 C 11,2 C 11,4 C 50 % 1012,6 hPa 0,0 l/m 0,0 km/h (0 Bft) NO 49 0 min 0,000 mm 0 W/m 1,2 C 11,2 C 0,0 km/h (0 Bft) 91 %
19.04.2022 22:00 10,9 C 10,9 C 11,2 C 52 % 1012,8 hPa 0,0 l/m 0,4 km/h (0 Bft) O-NO 64 0 min 0,026 mm 0 W/m 1,4 C 10,9 C 9,7 km/h (2 Bft) 100 %
19.04.2022 22:10 10,7 C 10,7 C 10,9 C 51 % 1013,0 hPa 0,0 l/m 0,6 km/h (0 Bft) O 82 0 min 0,000 mm 0 W/m 1,0 C 10,7 C 11,3 km/h (2 Bft) 100 %
19.04.2022 22:20 10,4 C 10,4 C 10,7 C 51 % 1013,1 hPa 0,0 l/m 0,6 km/h (0 Bft) O-SO 105 0 min 0,000 mm 0 W/m 0,7 C 10,4 C 9,7 km/h (2 Bft) 100 %
19.04.2022 22:30 10,3 C 10,3 C 10,4 C 50 % 1013,2 hPa 0,0 l/m 0,5 km/h (0 Bft) O 83 0 min 0,000 mm 0 W/m 0,3 C 10,3 C 14,5 km/h (3 Bft) 100 %
19.04.2022 22:40 10,0 C 10,0 C 10,3 C 51 % 1013,4 hPa 0,0 l/m 0,1 km/h (0 Bft) NO 53 0 min 0,000 mm 0 W/m 0,3 C 10,0 C 4,8 km/h (1 Bft) 100 %
19.04.2022 22:50 9,6 C 9,6 C 10,0 C 52 % 1013,4 hPa 0,0 l/m 0,3 km/h (0 Bft) N-NO 13 0 min 0,000 mm 0 W/m 0,2 C 9,6 C 8,0 km/h (2 Bft) 100 %
19.04.2022 23:00 9,4 C 9,4 C 9,6 C 51 % 1013,4 hPa 0,0 l/m 0,1 km/h (0 Bft) O 84 0 min 0,025 mm 0 W/m -0,2 C 9,4 C 4,8 km/h (1 Bft) 100 %
19.04.2022 23:10 9,2 C 9,2 C 9,4 C 51 % 1013,6 hPa 0,0 l/m 0,0 km/h (0 Bft) O 84 0 min 0,000 mm 0 W/m -0,4 C 9,2 C 0,0 km/h (0 Bft) 100 %
19.04.2022 23:20 9,1 C 9,1 C 9,2 C 51 % 1013,7 hPa 0,0 l/m 0,0 km/h (0 Bft) O 79 0 min 0,000 mm 0 W/m -0,5 C 9,1 C 3,2 km/h (1 Bft) 100 %
19.04.2022 23:30 8,8 C 8,8 C 9,1 C 52 % 1013,7 hPa 0,0 l/m 0,0 km/h (0 Bft) O-NO 73 0 min 0,000 mm 0 W/m -0,5 C 8,8 C 0,0 km/h (0 Bft) 100 %
19.04.2022 23:40 8,4 C 8,4 C 8,8 C 53 % 1013,7 hPa 0,0 l/m 0,0 km/h (0 Bft) NO 41 0 min 0,000 mm 0 W/m -0,6 C 8,4 C 4,8 km/h (1 Bft) 100 %
19.04.2022 23:50 8,1 C 8,1 C 8,4 C 53 % 1013,5 hPa 0,0 l/m 0,0 km/h (0 Bft) NO 55 0 min 0,000 mm 0 W/m -0,9 C 8,1 C 3,2 km/h (1 Bft) 100 %
_ Min-Zeit 05:50 05:50 06:00 15:00 18:00 - 00:00 - - - - - 05:50 05:50 00:00 21:50
Minimum _ 1,1 C 1,1 C 1,1 C 37 % 1009,2 hPa - 0,0 km/h (0 Bft) - - - - - -1,0 C 1,1 C 0,0 km/h (0 Bft) 91 %
_ Max-Zeit 16:50 16:50 16:50 07:10 00:00 00:00 12:10 - - 08:30 13:00 13:10 17:30 16:50 12:20 00:20
Maximum _ 19,8 C 19,5 C 19,8 C 88 % 1014,2 hPa 0,0 l/m 5,8 km/h
N-NW (2 Bft)
- - 10 min 0,458 mm 819 W/m 6,2 C 19,8 C 20,9 km/h
NW (4 Bft)
100 %
Durchschnitt _ 10,4 C 10,2 C 10,5 C 60 % 1011,7 hPa #0,0 l/m 0,3 km/h (0 Bft) N-NW - #9:50 h #3,556 mm 466 W/m 2,2 C 10,4 C 4,3 km/h (1 Bft) 99 %
PRIVATE WETTERSTATION BILLIGHEIM-ALLFELD - www.neckar-odenwald-wetter.de - Holger Sonntag